Terminal Aerodrome Forecast
Issued by NWS Mt. Holly, NJ

Home | Current Version | Previous Version | Text Only | Print | Product List | Glossary On
Versions: 1 2 3 4 5 6 7 8 9 10 11 12 13 14
000
FTUS41 KPHI 011735
TAFTTN
TAF
KTTN 011735Z 0118/0218 36005KT P6SM SCT050
     FM012100 16003KT P6SM FEW250
     FM020800 32003KT 4SM BR SCT250
      TEMPO 0210/0212 2SM BR
     FM021400 24005KT P6SM SCT050=

USA.gov is the U.S. government's official web portal to all federal, state and local government web resources and services.